JBU6TL TIST-TNCM
Flight info
| Callsign | JBU6TL |
|---|---|
| Flight time | 0h 24m |
| Altitude | 15000 |
| Route | STT A638 PJM |
| Aircraft | A319/M-SDE3FGHIRWY/LB1 |
Departure
| Time | 2026-04-23 14:56 |
|---|---|
| Airport | Cyril E. King Airport (TIST) |
Arrival
| Time | 2026-04-23 15:20 |
|---|---|
| Airport | Princess Juliana International Airport (TNCM) |
| Time | Latitude | Longitude | Altitude | Speed | Heading |
|---|---|---|---|---|---|
| 2026-04-23 14:37 | 18.33937 | -64.96510 | 27 ft | 0 kts | 178° |
| 2026-04-23 14:51 | 18.33929 | -64.96510 | 26 ft | 3 kts | 179° |
| 2026-04-23 14:52 | 18.33909 | -64.96529 | 28 ft | 5 kts | 255° |
| 2026-04-23 14:52 | 18.33912 | -64.96576 | 26 ft | 8 kts | 269° |
| 2026-04-23 14:52 | 18.33910 | -64.96644 | 26 ft | 11 kts | 269° |
| 2026-04-23 14:52 | 18.33901 | -64.96687 | 26 ft | 7 kts | 228° |
| 2026-04-23 14:53 | 18.33858 | -64.96690 | 25 ft | 6 kts | 172° |
| 2026-04-23 14:53 | 18.33793 | -64.96685 | 23 ft | 13 kts | 181° |
| 2026-04-23 14:53 | 18.33753 | -64.96756 | 21 ft | 14 kts | 265° |
| 2026-04-23 14:53 | 18.33749 | -64.96867 | 22 ft | 16 kts | 267° |
| 2026-04-23 14:54 | 18.33743 | -64.96990 | 25 ft | 17 kts | 267° |
| 2026-04-23 14:54 | 18.33738 | -64.97122 | 27 ft | 19 kts | 268° |
| 2026-04-23 14:54 | 18.33731 | -64.97272 | 27 ft | 22 kts | 267° |
| 2026-04-23 14:54 | 18.33723 | -64.97441 | 28 ft | 24 kts | 266° |
| 2026-04-23 14:55 | 18.33717 | -64.97623 | 29 ft | 26 kts | 268° |
| 2026-04-23 14:55 | 18.33725 | -64.97767 | 28 ft | 13 kts | 258° |
| 2026-04-23 14:55 | 18.33712 | -64.97748 | 28 ft | 0 kts | 86° |
| 2026-04-23 14:55 | 18.33713 | -64.97722 | 29 ft | 24 kts | 87° |
| 2026-04-23 14:56 | 18.33730 | -64.97262 | 27 ft | 98 kts | 88° |
| 2026-04-23 14:56 | 18.33767 | -64.96355 | 55 ft | 147 kts | 87° |
| 2026-04-23 14:56 | 18.33813 | -64.95334 | 848 ft | 137 kts | 86° |
| 2026-04-23 14:56 | 18.33890 | -64.94290 | 1692 ft | 149 kts | 81° |
| 2026-04-23 14:57 | 18.34226 | -64.93197 | 2392 ft | 167 kts | 63° |
| 2026-04-23 14:57 | 18.34747 | -64.92007 | 2834 ft | 192 kts | 66° |
| 2026-04-23 14:57 | 18.35314 | -64.90621 | 3124 ft | 220 kts | 66° |
| 2026-04-23 14:57 | 18.35954 | -64.89033 | 3508 ft | 250 kts | 67° |
| 2026-04-23 14:58 | 18.36641 | -64.87292 | 4274 ft | 261 kts | 67° |
| 2026-04-23 14:58 | 18.37340 | -64.85513 | 5229 ft | 266 kts | 67° |
| 2026-04-23 14:58 | 18.38056 | -64.83700 | 6164 ft | 270 kts | 67° |
| 2026-04-23 14:58 | 18.38786 | -64.81862 | 7055 ft | 274 kts | 67° |
| 2026-04-23 14:59 | 18.39532 | -64.79994 | 7879 ft | 280 kts | 66° |
| 2026-04-23 14:59 | 18.40296 | -64.78088 | 8691 ft | 286 kts | 66° |
| 2026-04-23 14:59 | 18.41080 | -64.76134 | 9485 ft | 293 kts | 66° |
| 2026-04-23 14:59 | 18.41882 | -64.74138 | 10161 ft | 303 kts | 67° |
| 2026-04-23 15:00 | 18.42349 | -64.71891 | 10410 ft | 327 kts | 89° |
| 2026-04-23 15:00 | 18.42300 | -64.69446 | 10897 ft | 339 kts | 92° |
| 2026-04-23 15:00 | 18.42218 | -64.66944 | 11574 ft | 344 kts | 92° |
| 2026-04-23 15:00 | 18.42130 | -64.64410 | 12270 ft | 349 kts | 92° |
| 2026-04-23 15:01 | 18.42043 | -64.61875 | 12957 ft | 354 kts | 92° |
| 2026-04-23 15:01 | 18.41954 | -64.59270 | 13634 ft | 359 kts | 92° |
| 2026-04-23 15:01 | 18.41871 | -64.56628 | 14263 ft | 363 kts | 92° |
| 2026-04-23 15:01 | 18.41791 | -64.53953 | 14778 ft | 368 kts | 92° |
| 2026-04-23 15:02 | 18.41714 | -64.51252 | 14954 ft | 369 kts | 92° |
| 2026-04-23 15:02 | 18.41635 | -64.48576 | 15004 ft | 361 kts | 92° |
| 2026-04-23 15:02 | 18.41557 | -64.45947 | 15008 ft | 358 kts | 92° |
| 2026-04-23 15:02 | 18.41476 | -64.43331 | 15008 ft | 357 kts | 92° |
| 2026-04-23 15:03 | 18.41392 | -64.40722 | 15004 ft | 357 kts | 92° |
| 2026-04-23 15:03 | 18.41309 | -64.38108 | 15005 ft | 357 kts | 92° |
| 2026-04-23 15:03 | 18.41227 | -64.35451 | 15005 ft | 370 kts | 92° |
| 2026-04-23 15:03 | 18.41142 | -64.32718 | 15000 ft | 375 kts | 92° |
| 2026-04-23 15:04 | 18.41055 | -64.29963 | 14999 ft | 377 kts | 92° |
| 2026-04-23 15:04 | 18.40966 | -64.27204 | 15000 ft | 377 kts | 92° |
| 2026-04-23 15:04 | 18.40874 | -64.24446 | 15000 ft | 377 kts | 92° |
| 2026-04-23 15:04 | 18.40783 | -64.21689 | 14999 ft | 377 kts | 92° |
| 2026-04-23 15:05 | 18.40694 | -64.18927 | 14998 ft | 377 kts | 92° |
| 2026-04-23 15:05 | 18.40605 | -64.16169 | 14999 ft | 377 kts | 92° |
| 2026-04-23 15:05 | 18.40518 | -64.13412 | 14999 ft | 377 kts | 92° |
| 2026-04-23 15:05 | 18.40434 | -64.10650 | 15000 ft | 377 kts | 92° |
| 2026-04-23 15:06 | 18.40347 | -64.07892 | 15001 ft | 377 kts | 92° |
| 2026-04-23 15:06 | 18.40256 | -64.05130 | 15002 ft | 377 kts | 92° |
| 2026-04-23 15:06 | 18.40165 | -64.02368 | 15001 ft | 378 kts | 92° |
| 2026-04-23 15:06 | 18.40071 | -63.99606 | 15004 ft | 378 kts | 92° |
| 2026-04-23 15:07 | 18.39978 | -63.96852 | 14998 ft | 371 kts | 92° |
| 2026-04-23 15:07 | 18.39894 | -63.94227 | 14998 ft | 359 kts | 92° |
| 2026-04-23 15:07 | 18.39808 | -63.91609 | 14998 ft | 357 kts | 92° |
| 2026-04-23 15:07 | 18.39721 | -63.88997 | 14999 ft | 357 kts | 92° |
| 2026-04-23 15:08 | 18.39631 | -63.86387 | 15002 ft | 357 kts | 92° |
| 2026-04-23 15:08 | 18.39540 | -63.83782 | 14975 ft | 355 kts | 93° |
| 2026-04-23 15:08 | 18.39450 | -63.81215 | 14741 ft | 346 kts | 93° |
| 2026-04-23 15:09 | 18.39279 | -63.76252 | 14240 ft | 334 kts | 93° |
| 2026-04-23 15:09 | 18.39193 | -63.73811 | 13849 ft | 334 kts | 93° |
| 2026-04-23 15:09 | 18.39108 | -63.71368 | 13415 ft | 334 kts | 92° |
| 2026-04-23 15:09 | 18.38940 | -63.68944 | 13011 ft | 331 kts | 101° |
| 2026-04-23 15:10 | 18.38533 | -63.67403 | 12749 ft | 329 kts | 112° |
| 2026-04-23 15:10 | 18.36945 | -63.64695 | 12212 ft | 325 kts | 134° |
| 2026-04-23 15:10 | 18.35323 | -63.63051 | 11825 ft | 323 kts | 137° |
| 2026-04-23 15:10 | 18.33691 | -63.61437 | 11415 ft | 322 kts | 137° |
| 2026-04-23 15:11 | 18.32064 | -63.59828 | 11012 ft | 321 kts | 137° |
| 2026-04-23 15:11 | 18.30440 | -63.58221 | 10615 ft | 320 kts | 137° |
| 2026-04-23 15:11 | 18.28820 | -63.56621 | 10220 ft | 319 kts | 136° |
| 2026-04-23 15:11 | 18.27206 | -63.55024 | 9896 ft | 316 kts | 136° |
| 2026-04-23 15:12 | 18.25636 | -63.53469 | 9743 ft | 306 kts | 136° |
| 2026-04-23 15:12 | 18.24099 | -63.51944 | 9422 ft | 302 kts | 136° |
| 2026-04-23 15:12 | 18.22576 | -63.50429 | 9082 ft | 300 kts | 136° |
| 2026-04-23 15:12 | 18.21114 | -63.48973 | 8751 ft | 298 kts | 136° |
| 2026-04-23 15:13 | 18.19598 | -63.47467 | 8285 ft | 293 kts | 136° |
| 2026-04-23 15:13 | 18.18140 | -63.46020 | 7795 ft | 291 kts | 136° |
| 2026-04-23 15:13 | 18.16672 | -63.44566 | 7318 ft | 288 kts | 136° |
| 2026-04-23 15:13 | 18.15228 | -63.43137 | 6882 ft | 284 kts | 136° |
| 2026-04-23 15:14 | 18.13798 | -63.41721 | 6469 ft | 279 kts | 136° |
| 2026-04-23 15:14 | 18.12394 | -63.40332 | 6056 ft | 274 kts | 136° |
| 2026-04-23 15:14 | 18.11022 | -63.38975 | 5702 ft | 268 kts | 136° |
| 2026-04-23 15:14 | 18.09679 | -63.37649 | 5367 ft | 262 kts | 136° |
| 2026-04-23 15:15 | 18.08363 | -63.36349 | 5035 ft | 257 kts | 136° |
| 2026-04-23 15:15 | 18.07089 | -63.35090 | 4709 ft | 246 kts | 136° |
| 2026-04-23 15:15 | 18.05867 | -63.33885 | 4398 ft | 235 kts | 136° |
| 2026-04-23 15:15 | 18.04705 | -63.32736 | 4100 ft | 223 kts | 135° |
| 2026-04-23 15:16 | 18.03601 | -63.31646 | 3821 ft | 213 kts | 135° |
| 2026-04-23 15:16 | 18.02546 | -63.30571 | 3552 ft | 210 kts | 129° |
| 2026-04-23 15:16 | 18.01832 | -63.29253 | 3268 ft | 208 kts | 106° |
| 2026-04-23 15:16 | 18.01653 | -63.27769 | 3013 ft | 204 kts | 85° |
| 2026-04-23 15:17 | 18.01857 | -63.26299 | 2730 ft | 204 kts | 81° |
| 2026-04-23 15:17 | 18.02079 | -63.24825 | 2430 ft | 204 kts | 81° |
| 2026-04-23 15:17 | 18.02290 | -63.23372 | 2117 ft | 198 kts | 81° |
| 2026-04-23 15:17 | 18.02488 | -63.21987 | 1925 ft | 186 kts | 81° |
| 2026-04-23 15:18 | 18.02683 | -63.20668 | 1719 ft | 177 kts | 81° |
| 2026-04-23 15:18 | 18.02858 | -63.19421 | 1406 ft | 168 kts | 81° |
| 2026-04-23 15:18 | 18.03020 | -63.18256 | 1189 ft | 156 kts | 81° |
| 2026-04-23 15:18 | 18.03181 | -63.17159 | 977 ft | 147 kts | 80° |
| 2026-04-23 15:19 | 18.03333 | -63.16141 | 801 ft | 139 kts | 79° |
| 2026-04-23 15:19 | 18.03488 | -63.15151 | 630 ft | 135 kts | 79° |
| 2026-04-23 15:19 | 18.03614 | -63.14168 | 422 ft | 137 kts | 78° |
| 2026-04-23 15:19 | 18.03759 | -63.13195 | 269 ft | 135 kts | 78° |
| 2026-04-23 15:20 | 18.03853 | -63.12549 | 179 ft | 135 kts | 78° |
| 2026-04-23 15:20 | 18.04037 | -63.11267 | 22 ft | 121 kts | 80° |
| 2026-04-23 15:20 | 18.04138 | -63.10583 | 21 ft | 54 kts | 82° |
| 2026-04-23 15:20 | 18.04128 | -63.10452 | 20 ft | 11 kts | 64° |
| 2026-04-23 15:21 | 18.04157 | -63.10457 | 20 ft | 5 kts | 264° |
| 2026-04-23 15:21 | 18.04141 | -63.10544 | 23 ft | 19 kts | 259° |
| 2026-04-23 15:21 | 18.04118 | -63.10725 | 21 ft | 30 kts | 264° |
| 2026-04-23 15:21 | 18.04092 | -63.10929 | 21 ft | 15 kts | 262° |
| 2026-04-23 15:22 | 18.04152 | -63.10999 | 22 ft | 14 kts | 343° |
| 2026-04-23 15:22 | 18.04162 | -63.11082 | 21 ft | 13 kts | 258° |
| 2026-04-23 15:22 | 18.04146 | -63.11190 | 21 ft | 17 kts | 262° |
| 2026-04-23 15:22 | 18.04152 | -63.11297 | 21 ft | 12 kts | 332° |
| 2026-04-23 15:23 | 18.04234 | -63.11332 | 23 ft | 14 kts | 298° |
| 2026-04-23 15:23 | 18.04227 | -63.11447 | 24 ft | 16 kts | 260° |
| 2026-04-23 15:23 | 18.04271 | -63.11491 | 22 ft | 10 kts | 355° |
| 2026-04-23 15:23 | 18.04297 | -63.11496 | 21 ft | 3 kts | 350° |
| 2026-04-23 15:24 | 18.04304 | -63.11497 | 21 ft | 0 kts | 350° |